Time;durP1;ratioP1;P1;durP2;ratioP2;P2;SDS_P1;SDS_P2;PMS_P1;PMS_P2;Temp;Humidity;BMP_temperature;BMP_pressure;BME280_temperature;BME280_humidity;BME280_pressure;Samples;Min_cycle;Max_cycle;Signal;HPM_P1;HPM_P2
2022/07/18 00:02:16;;;;;;;6.13;2.78;;;21.50;52.10;;;;;;5025999;28;20087;-76
2022/07/18 00:04:43;;;;;;;5.18;2.40;;;21.40;52.20;;;;;;5030326;28;20490;-76
2022/07/18 00:07:12;;;;;;;4.68;2.30;;;21.40;51.90;;;;;;5018837;28;20060;-76
2022/07/18 00:09:39;;;;;;;6.53;2.17;;;21.40;52.20;;;;;;5012510;28;20024;-75
2022/07/18 00:12:06;;;;;;;5.63;2.40;;;21.30;52.20;;;;;;5020457;28;20472;-76
2022/07/18 00:14:33;;;;;;;6.38;2.08;;;21.30;52.30;;;;;;5027104;28;20021;-76
2022/07/18 00:16:59;;;;;;;5.25;1.98;;;21.30;52.30;;;;;;5025500;28;20095;-76
2022/07/18 00:19:25;;;;;;;3.90;1.83;;;21.30;52.30;;;;;;5013373;28;20030;-76
2022/07/18 00:21:51;;;;;;;5.47;2.67;;;21.30;52.30;;;;;;5015332;28;20025;-75
2022/07/18 00:24:17;;;;;;;5.28;2.63;;;21.20;51.80;;;;;;5017524;28;20400;-74
2022/07/18 00:26:42;;;;;;;7.13;2.30;;;21.20;51.90;;;;;;5012464;28;20148;-75
2022/07/18 00:29:08;;;;;;;5.43;2.20;;;21.20;52.00;;;;;;5018033;28;20144;-75
2022/07/18 00:31:35;;;;;;;7.20;1.95;;;21.20;52.10;;;;;;5011937;28;20022;-75
2022/07/18 00:34:01;;;;;;;7.65;2.20;;;21.20;52.00;;;;;;5020902;28;20492;-74
2022/07/18 00:36:27;;;;;;;5.93;2.38;;;21.10;52.00;;;;;;5028363;28;20071;-74
2022/07/18 00:38:53;;;;;;;5.45;2.63;;;21.10;52.00;;;;;;5001154;28;20030;-74
2022/07/18 00:41:18;;;;;;;6.57;2.63;;;21.10;52.10;;;;;;5030174;28;20029;-75
2022/07/18 00:43:44;;;;;;;7.50;2.45;;;21.00;52.10;;;;;;5017075;28;20122;-75
2022/07/18 00:46:13;;;;;;;5.38;2.50;;;21.00;52.50;;;;;;5029983;28;20021;-74
2022/07/18 00:48:43;;;;;;;6.60;3.13;;;21.00;52.50;;;;;;5016363;28;20033;-74
2022/07/18 00:51:09;;;;;;;6.85;2.80;;;21.00;52.60;;;;;;5012434;28;20412;-74
2022/07/18 00:53:35;;;;;;;6.95;3.00;;;20.90;52.60;;;;;;5019018;28;20073;-76
2022/07/18 00:56:03;;;;;;;6.80;2.53;;;20.90;52.90;;;;;;5027128;28;20025;-75
2022/07/18 00:58:30;;;;;;;7.97;2.15;;;20.90;52.90;;;;;;5020691;28;20121;-76
2022/07/18 01:03:40;;;;;;;5.55;2.20;;;20.80;53.00;;;;;;5019060;28;20095;-76
2022/07/18 01:06:05;;;;;;;8.50;3.13;;;20.80;52.90;;;;;;5013806;28;20085;-77
2022/07/18 01:08:32;;;;;;;6.25;2.63;;;20.80;53.00;;;;;;4997741;28;20502;-76
2022/07/18 01:10:58;;;;;;;7.78;2.75;;;20.80;52.70;;;;;;5024933;28;20025;-76
2022/07/18 01:13:24;;;;;;;5.15;2.53;;;20.70;53.00;;;;;;5024973;28;20124;-75
2022/07/18 01:15:50;;;;;;;6.40;2.53;;;20.70;53.40;;;;;;5020323;28;20029;-75
2022/07/18 01:18:16;;;;;;;6.75;2.92;;;20.70;53.50;;;;;;5026835;28;20399;-76
2022/07/18 01:20:42;;;;;;;5.78;2.53;;;20.60;53.40;;;;;;5017601;28;20119;-75
2022/07/18 01:23:08;;;;;;;6.05;2.40;;;20.60;52.90;;;;;;5027358;28;20060;-76
2022/07/18 01:25:34;;;;;;;7.15;2.55;;;20.60;53.30;;;;;;5017513;28;20037;-76
2022/07/18 01:28:00;;;;;;;6.85;2.67;;;20.60;53.20;;;;;;5026728;28;20144;-75
2022/07/18 01:30:26;;;;;;;8.02;3.10;;;20.50;53.10;;;;;;5016676;28;20101;-75
2022/07/18 01:32:58;;;;;;;6.97;2.67;;;20.50;53.20;;;;;;5028784;28;20095;-75
2022/07/18 01:35:23;;;;;;;5.30;2.25;;;20.50;53.10;;;;;;5015879;28;20044;-75
2022/07/18 01:37:54;;;;;;;8.13;3.10;;;20.50;53.50;;;;;;5029596;28;20476;-75
2022/07/18 01:40:20;;;;;;;4.65;2.17;;;20.50;53.40;;;;;;5027592;28;20425;-75
2022/07/18 01:42:46;;;;;;;5.82;2.58;;;20.40;53.20;;;;;;5026653;28;20110;-76
2022/07/18 01:45:12;;;;;;;6.55;2.38;;;20.40;53.40;;;;;;5024082;28;20075;-74
2022/07/18 01:47:37;;;;;;;6.43;2.90;;;20.40;53.20;;;;;;4994344;28;20014;-75
2022/07/18 01:50:04;;;;;;;8.35;2.60;;;20.40;53.50;;;;;;5021799;28;20033;-75
2022/07/18 01:52:30;;;;;;;4.53;2.35;;;20.40;53.60;;;;;;5013635;28;20037;-75
2022/07/18 01:54:56;;;;;;;6.63;2.60;;;20.30;53.60;;;;;;5012708;28;20045;-76
2022/07/18 01:57:23;;;;;;;5.93;3.20;;;20.30;53.60;;;;;;5020482;28;20840;-76
2022/07/18 01:59:49;;;;;;;4.72;2.42;;;20.30;53.60;;;;;;5025858;28;20440;-75
2022/07/18 02:02:15;;;;;;;6.25;2.33;;;20.30;53.40;;;;;;5011649;28;20032;-75
2022/07/18 02:04:59;;;;;;;6.43;2.60;;;20.30;53.60;;;;;;5024758;28;20030;-75
2022/07/18 02:07:29;;;;;;;6.30;2.85;;;20.30;53.60;;;;;;5017733;28;20171;-75
2022/07/18 02:09:55;;;;;;;6.88;2.78;;;20.20;53.30;;;;;;5027189;28;20022;-75
2022/07/18 02:12:21;;;;;;;6.78;2.85;;;20.20;53.60;;;;;;4991524;28;20025;-75
2022/07/18 02:14:47;;;;;;;7.95;3.08;;;20.20;53.50;;;;;;4992754;28;20057;-76
2022/07/18 02:17:13;;;;;;;6.18;3.22;;;20.20;54.40;;;;;;5024127;28;20108;-74
2022/07/18 02:19:40;;;;;;;7.75;3.60;;;20.20;53.70;;;;;;5009986;28;20022;-75
2022/07/18 02:22:06;;;;;;;6.28;2.67;;;20.10;53.60;;;;;;5022944;28;20488;-75
2022/07/18 02:24:31;;;;;;;7.47;3.22;;;20.10;53.60;;;;;;5008641;28;20076;-75
2022/07/18 02:26:57;;;;;;;7.53;3.67;;;20.10;53.60;;;;;;5021458;28;20025;-77
2022/07/18 02:29:23;;;;;;;6.72;3.20;;;20.10;53.90;;;;;;5015517;28;20052;-74
2022/07/18 02:31:48;;;;;;;5.53;2.60;;;20.00;54.10;;;;;;5017988;28;20034;-74
2022/07/18 02:34:14;;;;;;;7.03;3.20;;;20.10;54.20;;;;;;5010600;28;20026;-74
2022/07/18 02:36:40;;;;;;;8.25;3.28;;;20.00;54.20;;;;;;5013786;28;20029;-74
2022/07/18 02:39:07;;;;;;;7.28;3.75;;;20.00;54.40;;;;;;5006098;28;20664;-74
2022/07/18 02:41:34;;;;;;;6.50;3.08;;;20.00;54.60;;;;;;5022449;28;20109;-74
2022/07/18 02:43:59;;;;;;;8.02;2.83;;;20.00;54.70;;;;;;5003097;28;20494;-74
2022/07/18 02:46:25;;;;;;;6.85;3.45;;;19.90;54.90;;;;;;5006659;28;20090;-74
2022/07/18 02:48:51;;;;;;;7.80;3.17;;;19.90;55.00;;;;;;5018522;28;20029;-74
2022/07/18 02:51:17;;;;;;;5.22;2.67;;;19.90;54.80;;;;;;5026212;28;20122;-74
2022/07/18 02:53:43;;;;;;;6.03;2.90;;;19.90;54.60;;;;;;5016439;28;20122;-74
2022/07/18 02:56:08;;;;;;;7.43;3.17;;;19.90;54.60;;;;;;5009433;28;20038;-74
2022/07/18 02:58:34;;;;;;;6.07;3.22;;;19.80;55.00;;;;;;5001327;28;20053;-74
2022/07/18 03:01:00;;;;;;;5.32;2.75;;;19.80;55.10;;;;;;5007873;28;20069;-74
2022/07/18 03:03:25;;;;;;;7.20;3.03;;;19.70;55.10;;;;;;5023446;28;20044;-74
2022/07/18 03:05:51;;;;;;;7.60;3.53;;;19.80;55.20;;;;;;4995224;28;20132;-75
2022/07/18 03:08:17;;;;;;;6.35;3.17;;;19.80;55.40;;;;;;5021313;28;20083;-74
2022/07/18 03:10:43;;;;;;;5.97;2.88;;;19.70;55.40;;;;;;5007800;28;20415;-75
2022/07/18 03:13:10;;;;;;;6.07;2.88;;;19.70;55.30;;;;;;5022220;28;20022;-74
2022/07/18 03:15:36;;;;;;;7.60;3.45;;;19.60;55.40;;;;;;5010330;28;20018;-74
2022/07/18 03:18:02;;;;;;;6.10;2.92;;;19.60;55.60;;;;;;5015413;28;20026;-74
2022/07/18 03:20:28;;;;;;;8.75;3.17;;;19.60;55.80;;;;;;5012082;28;20113;-75
2022/07/18 03:22:54;;;;;;;8.98;3.40;;;19.60;55.90;;;;;;5016420;28;20105;-75
2022/07/18 03:25:19;;;;;;;4.68;2.85;;;19.60;55.90;;;;;;5006250;28;20067;-75
2022/07/18 03:27:45;;;;;;;7.47;2.88;;;19.60;55.90;;;;;;5011079;28;20032;-74
2022/07/18 03:30:11;;;;;;;7.30;3.33;;;19.50;55.70;;;;;;5030426;28;20025;-74
2022/07/18 03:32:37;;;;;;;8.80;2.83;;;19.60;56.10;;;;;;5027330;28;20450;-73
2022/07/18 03:35:03;;;;;;;6.82;3.35;;;19.50;56.00;;;;;;5004948;28;20033;-74
2022/07/18 03:37:29;;;;;;;6.18;3.00;;;19.50;55.90;;;;;;5018972;28;20057;-75
2022/07/18 03:39:55;;;;;;;6.13;3.03;;;19.50;55.90;;;;;;5019389;28;20080;-74
2022/07/18 03:42:20;;;;;;;5.55;2.75;;;19.50;55.80;;;;;;5031180;28;20034;-74
2022/07/18 03:44:46;;;;;;;6.63;3.05;;;19.50;55.90;;;;;;5018205;28;20041;-74
2022/07/18 03:47:12;;;;;;;7.18;3.00;;;19.50;55.90;;;;;;5011816;28;20025;-76
2022/07/18 03:49:37;;;;;;;10.25;3.13;;;19.50;55.80;;;;;;5026549;28;20018;-76
2022/07/18 03:52:03;;;;;;;6.93;3.22;;;19.50;55.70;;;;;;5025740;28;20025;-75
2022/07/18 03:54:29;;;;;;;7.85;2.97;;;19.50;55.70;;;;;;5020673;28;20518;-75
2022/07/18 03:56:54;;;;;;;5.70;2.80;;;19.50;55.80;;;;;;5028781;28;20472;-75
2022/07/18 03:59:20;;;;;;;5.88;2.63;;;19.50;55.80;;;;;;5008418;28;20494;-75
2022/07/18 04:01:46;;;;;;;6.30;2.42;;;19.50;55.80;;;;;;5028074;28;20052;-75
2022/07/18 04:04:11;;;;;;;7.30;2.85;;;19.50;55.90;;;;;;5008374;28;20084;-74
2022/07/18 04:06:37;;;;;;;4.65;2.10;;;19.50;55.90;;;;;;5023133;28;20025;-74
2022/07/18 04:09:03;;;;;;;6.32;2.90;;;19.50;55.90;;;;;;5028869;28;20025;-73
2022/07/18 04:11:29;;;;;;;6.82;2.95;;;19.50;55.80;;;;;;5019690;28;20057;-73
2022/07/18 04:13:54;;;;;;;7.68;3.22;;;19.50;55.60;;;;;;5029224;28;20595;-74
2022/07/18 04:16:20;;;;;;;7.47;2.70;;;19.50;55.60;;;;;;5026806;28;20414;-74
2022/07/18 04:18:46;;;;;;;7.65;2.67;;;19.50;55.70;;;;;;5029222;28;21429;-75
2022/07/18 04:21:13;;;;;;;8.93;2.90;;;19.60;55.50;;;;;;5018511;28;20471;-74
2022/07/18 04:23:39;;;;;;;5.32;2.90;;;19.60;55.40;;;;;;5030547;28;20030;-74
2022/07/18 04:26:05;;;;;;;7.35;3.15;;;19.60;55.40;;;;;;5008611;28;20116;-75
2022/07/18 04:28:31;;;;;;;8.45;3.17;;;19.60;55.30;;;;;;5014482;28;20101;-75
2022/07/18 04:30:56;;;;;;;8.57;3.17;;;19.70;55.30;;;;;;5027338;28;20029;-75
2022/07/18 04:33:22;;;;;;;8.07;3.13;;;19.70;55.40;;;;;;5010686;28;20085;-75
2022/07/18 04:35:49;;;;;;;6.68;2.65;;;19.70;55.60;;;;;;5019129;28;20075;-75
2022/07/18 04:38:15;;;;;;;7.68;3.15;;;19.70;55.50;;;;;;5028487;28;20759;-75
2022/07/18 04:40:41;;;;;;;6.82;3.58;;;19.80;55.60;;;;;;5024548;28;20025;-75
2022/07/18 04:43:07;;;;;;;6.55;2.97;;;19.80;55.80;;;;;;5029827;28;20034;-75
2022/07/18 04:45:34;;;;;;;6.85;2.85;;;19.80;55.90;;;;;;5009284;28;20056;-75
2022/07/18 04:48:02;;;;;;;8.55;3.22;;;19.90;55.90;;;;;;5017927;28;20742;-75
2022/07/18 04:50:29;;;;;;;9.15;3.63;;;19.90;55.90;;;;;;4993264;28;20117;-76
2022/07/18 04:52:56;;;;;;;7.05;3.30;;;20.00;55.90;;;;;;5020180;28;20021;-76
2022/07/18 04:55:23;;;;;;;8.70;3.25;;;20.00;55.70;;;;;;5010268;28;20022;-75
2022/07/18 04:57:49;;;;;;;5.10;2.22;;;20.00;55.90;;;;;;5018834;28;20534;-76
2022/07/18 05:00:18;;;;;;;5.65;2.97;;;20.00;55.80;;;;;;5028734;28;20498;-75
2022/07/18 05:02:47;;;;;;;4.85;2.22;;;20.10;55.60;;;;;;5015198;28;20458;-76
2022/07/18 05:05:14;;;;;;;8.27;3.22;;;20.10;55.70;;;;;;5029266;28;20750;-75
2022/07/18 05:07:41;;;;;;;5.00;2.60;;;20.20;55.80;;;;;;5021810;28;20072;-75
2022/07/18 05:10:08;;;;;;;6.63;2.78;;;20.20;55.70;;;;;;5009066;28;20488;-74
2022/07/18 05:12:35;;;;;;;7.40;3.28;;;20.20;56.00;;;;;;5021775;28;20022;-74
2022/07/18 05:15:01;;;;;;;7.03;3.00;;;20.30;55.40;;;;;;5009260;28;20518;-75
2022/07/18 05:17:28;;;;;;;6.65;3.20;;;20.30;55.40;;;;;;5013991;28;20060;-75
2022/07/18 05:19:56;;;;;;;7.13;3.60;;;20.40;55.50;;;;;;5010454;28;20037;-75
2022/07/18 05:22:21;;;;;;;8.73;4.40;;;20.50;55.90;;;;;;5019660;28;20034;-76
2022/07/18 05:24:47;;;;;;;9.98;4.35;;;20.50;55.00;;;;;;5025561;28;20091;-75
2022/07/18 05:27:13;;;;;;;11.35;4.47;;;20.70;54.60;;;;;;5022202;28;20175;-74
2022/07/18 05:29:40;;;;;;;8.80;3.47;;;20.70;54.30;;;;;;5010485;28;20022;-74
2022/07/18 05:32:07;;;;;;;8.32;3.92;;;20.70;54.40;;;;;;5006173;28;20025;-74
2022/07/18 05:34:33;;;;;;;8.15;4.35;;;20.80;54.20;;;;;;5017095;28;20358;-74
2022/07/18 05:36:59;;;;;;;9.13;4.15;;;20.80;54.00;;;;;;4995549;28;20028;-74
2022/07/18 05:39:24;;;;;;;6.85;3.72;;;20.80;54.00;;;;;;5017943;28;20025;-74
2022/07/18 05:41:50;;;;;;;10.95;3.90;;;20.80;54.00;;;;;;5018886;28;20431;-73
2022/07/18 05:44:15;;;;;;;8.82;3.35;;;20.80;54.20;;;;;;5019108;28;20034;-74
2022/07/18 05:46:41;;;;;;;8.80;4.13;;;20.80;54.40;;;;;;5028033;28;20026;-75
2022/07/18 05:49:06;;;;;;;9.30;4.10;;;20.90;54.40;;;;;;5024801;28;20109;-73
2022/07/18 05:51:32;;;;;;;8.88;3.75;;;20.90;54.80;;;;;;5009492;28;20104;-75
2022/07/18 05:53:58;;;;;;;7.57;3.10;;;20.90;55.20;;;;;;5022882;28;20573;-74
2022/07/18 05:56:23;;;;;;;8.02;3.72;;;21.00;55.40;;;;;;5027872;28;20132;-74
2022/07/18 05:58:49;;;;;;;12.88;5.60;;;21.00;55.50;;;;;;5016567;28;20022;-74
2022/07/18 06:01:19;;;;;;;9.35;4.63;;;21.10;55.60;;;;;;5005841;28;20026;-73
2022/07/18 06:03:46;;;;;;;10.73;4.18;;;21.20;55.10;;;;;;5011244;28;20057;-73
2022/07/18 06:06:12;;;;;;;9.32;4.30;;;21.40;55.10;;;;;;5024798;28;20032;-74
2022/07/18 06:08:38;;;;;;;10.05;3.92;;;21.50;54.40;;;;;;5023605;28;20108;-74
2022/07/18 06:11:06;;;;;;;7.47;3.72;;;21.50;53.60;;;;;;5020308;28;20141;-74
2022/07/18 06:13:32;;;;;;;8.35;4.32;;;21.60;53.80;;;;;;5025051;28;20413;-74
2022/07/18 06:15:58;;;;;;;11.18;4.03;;;21.70;53.50;;;;;;5019637;28;20179;-73
2022/07/18 06:18:24;;;;;;;8.50;3.88;;;21.80;53.50;;;;;;5016224;28;20096;-73
2022/07/18 06:20:49;;;;;;;8.25;3.75;;;21.90;53.60;;;;;;5023422;28;20096;-74
2022/07/18 06:23:15;;;;;;;9.63;4.30;;;22.00;53.00;;;;;;5016121;28;20053;-73
2022/07/18 06:25:40;;;;;;;10.32;5.32;;;22.10;52.10;;;;;;4997877;28;20495;-74
2022/07/18 06:28:06;;;;;;;12.95;5.43;;;22.20;51.80;;;;;;5017903;28;20029;-73
2022/07/18 06:30:32;;;;;;;11.23;4.80;;;22.20;51.60;;;;;;5017407;28;20022;-74
2022/07/18 06:32:58;;;;;;;9.40;4.55;;;22.20;52.00;;;;;;5015356;28;20128;-74
2022/07/18 06:35:24;;;;;;;10.50;5.15;;;22.20;52.20;;;;;;5015498;28;20559;-73
2022/07/18 06:37:49;;;;;;;7.70;2.95;;;22.30;52.50;;;;;;5022710;28;20105;-74
2022/07/18 06:40:15;;;;;;;10.48;3.55;;;22.40;52.90;;;;;;5017019;28;20160;-73
2022/07/18 06:42:41;;;;;;;10.25;4.13;;;22.50;51.60;;;;;;5015589;28;20026;-74
2022/07/18 06:45:07;;;;;;;5.60;2.70;;;22.60;51.80;;;;;;5019557;28;20253;-74
2022/07/18 06:47:33;;;;;;;9.15;4.15;;;22.70;52.30;;;;;;5015734;28;20502;-74
2022/07/18 06:49:58;;;;;;;8.15;3.13;;;22.80;50.50;;;;;;5016774;28;20017;-74
2022/07/18 06:52:24;;;;;;;6.38;3.08;;;22.90;50.90;;;;;;5016685;28;20018;-73
2022/07/18 06:54:50;;;;;;;6.93;3.20;;;23.00;51.30;;;;;;5021215;28;20056;-74
2022/07/18 06:57:15;;;;;;;7.63;3.35;;;23.00;50.80;;;;;;5000419;28;20021;-73
2022/07/18 06:59:41;;;;;;;7.35;3.20;;;23.10;51.40;;;;;;5017585;28;20022;-74
2022/07/18 07:02:07;;;;;;;9.70;3.85;;;23.10;51.30;;;;;;5020203;28;20098;-75
2022/07/18 07:04:32;;;;;;;7.63;2.60;;;23.20;51.20;;;;;;4999335;28;20133;-74
2022/07/18 07:06:58;;;;;;;5.78;2.97;;;23.30;50.90;;;;;;5026138;28;20021;-73
2022/07/18 07:09:24;;;;;;;4.90;2.13;;;23.40;50.50;;;;;;5025910;28;20089;-74
2022/07/18 07:11:49;;;;;;;6.47;2.22;;;23.50;50.50;;;;;;5029339;28;20026;-74
2022/07/18 07:14:15;;;;;;;8.20;2.85;;;23.60;50.90;;;;;;5030241;28;20037;-74
2022/07/18 07:16:40;;;;;;;7.35;2.58;;;23.70;50.70;;;;;;5026882;28;20072;-73
2022/07/18 07:19:06;;;;;;;7.43;2.50;;;23.70;51.20;;;;;;5017824;28;20077;-74
2022/07/18 07:21:32;;;;;;;4.35;2.25;;;23.80;51.00;;;;;;5017695;28;20540;-73
2022/07/18 07:23:57;;;;;;;6.05;2.42;;;23.90;50.80;;;;;;5031108;28;20038;-74
2022/07/18 07:26:23;;;;;;;6.43;2.67;;;23.90;50.90;;;;;;5006242;28;20488;-74
2022/07/18 07:28:49;;;;;;;6.03;2.40;;;24.00;50.90;;;;;;5030983;28;20022;-73
2022/07/18 07:31:15;;;;;;;7.90;2.55;;;24.10;50.50;;;;;;5024760;28;20108;-74
2022/07/18 07:33:44;;;;;;;8.15;2.92;;;24.10;50.70;;;;;;5030808;28;20018;-73
2022/07/18 07:36:10;;;;;;;5.27;1.77;;;24.20;50.70;;;;;;5026334;28;20018;-75
2022/07/18 07:38:36;;;;;;;5.95;2.00;;;24.20;50.60;;;;;;5025276;28;20707;-74
2022/07/18 07:41:02;;;;;;;5.30;2.10;;;24.30;50.40;;;;;;5025659;28;20057;-73
2022/07/18 07:43:27;;;;;;;7.28;2.30;;;24.40;50.50;;;;;;5024212;28;20040;-75
2022/07/18 07:45:55;;;;;;;5.10;2.10;;;24.60;50.30;;;;;;5029118;28;20026;-74
2022/07/18 07:48:22;;;;;;;4.90;1.60;;;24.70;50.30;;;;;;5024263;28;20037;-74
2022/07/18 07:50:48;;;;;;;6.35;2.28;;;24.80;50.30;;;;;;5030470;28;20026;-74
2022/07/18 07:53:13;;;;;;;5.65;1.45;;;25.00;50.20;;;;;;4992216;28;20142;-73
2022/07/18 07:55:39;;;;;;;7.30;2.53;;;25.00;49.60;;;;;;4991078;28;20440;-73
2022/07/18 07:58:05;;;;;;;6.13;1.73;;;25.10;49.10;;;;;;4978575;28;20041;-75
2022/07/18 08:00:31;;;;;;;6.43;2.38;;;25.20;49.60;;;;;;4990229;28;20046;-75
2022/07/18 08:02:59;;;;;;;5.55;2.67;;;25.30;49.40;;;;;;4979966;28;20097;-75
2022/07/18 08:05:26;;;;;;;4.00;1.90;;;25.40;48.70;;;;;;4987251;28;20080;-74
2022/07/18 08:07:52;;;;;;;5.60;1.55;;;25.50;49.40;;;;;;4986802;28;20117;-74
2022/07/18 08:10:18;;;;;;;3.20;1.08;;;25.60;47.70;;;;;;4978975;28;20438;-75
2022/07/18 08:12:44;;;;;;;4.25;1.30;;;25.70;48.60;;;;;;4984566;28;20027;-75
2022/07/18 08:15:15;;;;;;;6.20;2.20;;;25.90;48.40;;;;;;4986018;28;20469;-75
2022/07/18 08:17:41;;;;;;;6.63;1.92;;;26.10;46.60;;;;;;4983442;28;20026;-76
2022/07/18 08:20:08;;;;;;;5.85;1.83;;;26.30;45.70;;;;;;4975344;28;20080;-76
2022/07/18 08:22:34;;;;;;;5.22;1.83;;;26.60;45.80;;;;;;4972893;28;20011;-75
2022/07/18 08:25:01;;;;;;;5.10;1.52;;;26.80;45.20;;;;;;4987373;28;20038;-75
2022/07/18 08:27:26;;;;;;;6.57;1.63;;;26.90;44.90;;;;;;4987568;28;20398;-74
2022/07/18 08:29:53;;;;;;;8.20;2.22;;;27.10;45.10;;;;;;4983458;28;20516;-73
2022/07/18 08:32:19;;;;;;;5.40;1.70;;;27.20;43.60;;;;;;4988264;28;20023;-73
2022/07/18 08:34:44;;;;;;;7.47;1.90;;;27.30;44.30;;;;;;4984813;28;20045;-74
2022/07/18 08:37:10;;;;;;;9.57;1.63;;;27.50;43.80;;;;;;4981083;28;20540;-75
2022/07/18 08:39:36;;;;;;;8.45;1.90;;;27.80;44.10;;;;;;4974388;28;20027;-74
2022/07/18 08:42:02;;;;;;;3.92;1.75;;;27.80;44.70;;;;;;4989283;28;20037;-75
2022/07/18 08:44:28;;;;;;;7.13;2.42;;;27.80;44.10;;;;;;4978741;28;20045;-75
2022/07/18 08:46:56;;;;;;;5.15;1.70;;;27.90;42.80;;;;;;4988856;28;20025;-73
2022/07/18 08:49:22;;;;;;;3.83;1.20;;;28.00;42.70;;;;;;4979133;28;20023;-75
2022/07/18 08:51:48;;;;;;;4.75;1.42;;;28.20;44.50;;;;;;4987226;28;20037;-75
2022/07/18 08:54:16;;;;;;;5.75;1.58;;;28.50;43.30;;;;;;4993658;28;20803;-76
2022/07/18 08:56:41;;;;;;;4.28;1.60;;;28.80;42.30;;;;;;5003267;28;20056;-75
2022/07/18 08:59:07;;;;;;;7.80;1.55;;;29.00;41.60;;;;;;5003900;28;20426;-74
2022/07/18 09:01:33;;;;;;;4.50;1.90;;;28.90;41.20;;;;;;4988967;28;20026;-75
2022/07/18 09:04:18;;;;;;;8.90;1.60;;;28.90;43.00;;;;;;4995185;28;20053;-76
2022/07/18 09:06:48;;;;;;;5.43;1.70;;;29.00;41.80;;;;;;5000778;28;20041;-75
2022/07/18 09:09:14;;;;;;;;;;;29.20;40.10;;;;;;5005375;28;20465;-75
2022/07/18 09:11:51;;;;;;;5.05;1.35;;;29.40;43.90;;;;;;4997476;28;19912;-76
2022/07/18 09:14:30;;;;;;;4.03;1.80;;;29.40;40.60;;;;;;4992209;28;20057;-75
2022/07/18 09:17:09;;;;;;;3.70;1.33;;;29.60;42.20;;;;;;4996337;28;20053;-76
2022/07/18 09:19:36;;;;;;;3.78;1.25;;;29.70;39.10;;;;;;4985921;28;20165;-75
2022/07/18 09:22:12;;;;;;;4.97;1.70;;;30.00;39.60;;;;;;4986871;28;20102;-75
2022/07/18 09:25:03;;;;;;;4.47;1.40;;;30.40;43.10;;;;;;4986154;28;20054;-75
2022/07/18 09:27:36;;;;;;;3.88;1.52;;;30.50;37.90;;;;;;4986832;28;20053;-76
2022/07/18 09:30:24;;;;;;;5.95;1.88;;;30.60;38.50;;;;;;4997692;28;20030;-77
2022/07/18 09:32:51;;;;;;;4.72;1.52;;;30.70;37.00;;;;;;4995871;28;20037;-76
2022/07/18 09:35:22;;;;;;;2.97;1.10;;;;;;;;;;4992914;28;20034;-76
2022/07/18 09:37:55;;;;;;;5.63;1.90;;;;;;;;;;4993733;28;20034;-76
2022/07/18 09:40:24;;;;;;;2.60;1.00;;;;;;;;;;4994553;28;20148;-77
2022/07/18 09:42:54;;;;;;;2.80;1.00;;;;;;;;;;4995011;28;20030;-76
2022/07/18 09:45:23;;;;;;;4.28;1.23;;;;;;;;;;4989450;28;20034;-76
2022/07/18 09:47:50;;;;;;;;;;;;;;;;;;4999812;28;20464;-76
2022/07/18 09:50:23;;;;;;;3.05;1.23;;;;;;;;;;5004173;28;20056;-76
2022/07/18 09:53:09;;;;;;;3.30;1.23;;;;;;;;;;4985137;28;20037;-75
2022/07/18 09:55:36;;;;;;;3.88;1.70;;;;;;;;;;5022199;28;20026;-75
2022/07/18 09:58:04;;;;;;;3.17;1.30;;;;;;;;;;5016283;28;20839;-75
2022/07/18 10:00:30;;;;;;;3.72;1.33;;;;;;;;;;5024719;28;20369;-77
2022/07/18 10:02:58;;;;;;;3.90;1.65;;;;;;;;;;5015850;28;20029;-75
2022/07/18 10:05:25;;;;;;;3.25;1.23;;;;;;;;;;5024957;28;20029;-76
2022/07/18 10:07:51;;;;;;;4.82;1.10;;;;;;;;;;4999162;28;20055;-75
2022/07/18 10:10:18;;;;;;;3.58;1.63;;;;;;;;;;5028083;28;20133;-75
2022/07/18 10:12:44;;;;;;;3.55;1.17;;;;;;;;;;5021321;28;20030;-75
2022/07/18 10:15:10;;;;;;;4.13;1.33;;;;;;;;;;4991178;28;20037;-76
2022/07/18 10:17:36;;;;;;;3.50;1.25;;;;;;;;;;5020474;28;20025;-76
2022/07/18 10:20:07;;;;;;;5.68;1.75;;;;;;;;;;5007906;28;20144;-77
2022/07/18 10:22:36;;;;;;;5.78;1.95;;;;;;;;;;5018226;28;20387;-76
2022/07/18 10:25:02;;;;;;;;;;;;;;;;;;5009882;28;20153;-75
2022/07/18 10:27:47;;;;;;;3.10;1.50;;;;;;;;;;5016577;28;19964;-75
2022/07/18 10:30:13;;;;;;;3.22;1.30;;;;;;;;;;5009412;28;20022;-77
2022/07/18 10:32:39;;;;;;;4.30;1.35;;;;;;;;;;5022860;28;21020;-76
2022/07/18 10:35:10;;;;;;;5.50;1.10;;;;;;;;;;5027884;28;20083;-75
2022/07/18 10:37:37;;;;;;;5.15;1.48;;;;;;;;;;5007710;28;20049;-76
2022/07/18 10:40:24;;;;;;;8.70;1.73;;;;;;;;;;5026344;28;20135;-76
2022/07/18 10:43:08;;;;;;;3.65;1.55;;;;;;;;;;5010036;28;20064;-76
2022/07/18 10:45:47;;;;;;;4.30;0.88;;;;;;;;;;5014250;28;20333;-76
2022/07/18 10:48:37;;;;;;;4.27;1.17;;;;;;;;;;5026520;28;20024;-76
2022/07/18 10:51:03;;;;;;;2.90;1.10;;;;;;;;;;4998242;28;20785;-76
2022/07/18 10:53:49;;;;;;;3.30;1.40;;;;;;;;;;5020899;28;20056;-76
2022/07/18 10:56:15;;;;;;;4.53;1.50;;;;;;;;;;5011943;28;20026;-76
2022/07/18 10:58:41;;;;;;;3.53;1.40;;;;;;;;;;5004222;28;20029;-75
2022/07/18 11:01:10;;;;;;;5.40;1.77;;;;;;;;;;5013508;28;20052;-74
2022/07/18 11:03:36;;;;;;;5.55;1.60;;;;;;;;;;5016582;28;20049;-74
2022/07/18 11:06:03;;;;;;;7.03;1.40;;;;;;;;;;5008985;28;20603;-75
2022/07/18 11:08:31;;;;;;;4.97;1.50;;;;;;;;;;5026559;28;20036;-74
2022/07/18 11:11:03;;;;;;;5.07;1.70;;;;;;;;;;5017697;28;20115;-76
2022/07/18 11:13:35;;;;;;;3.50;1.38;;;;;;;;;;5012363;28;20073;-77
2022/07/18 11:16:21;;;;;;;3.25;1.30;;;;;;;;;;5005994;28;20753;-77
2022/07/18 11:18:50;;;;;;;4.32;1.73;;;;;;;;;;5025476;28;20215;-76
2022/07/18 11:21:19;;;;;;;3.50;1.45;;;;;;;;;;5018024;28;20087;-76
2022/07/18 11:23:49;;;;;;;3.67;1.45;;;;;;;;;;5017756;28;20487;-75
2022/07/18 11:26:15;;;;;;;3.50;1.23;;;;;;;;;;5001567;28;20080;-76
2022/07/18 11:28:42;;;;;;;3.45;1.33;;;;;;;;;;4995336;28;20216;-75
2022/07/18 11:31:09;;;;;;;2.92;1.05;;;;;;;;;;5020569;28;20064;-75
2022/07/18 11:33:37;;;;;;;3.95;1.50;;;;;;;;;;4995975;28;20112;-75
2022/07/18 11:36:07;;;;;;;4.55;1.65;;;;;;;;;;5001815;28;20036;-77
2022/07/18 11:38:33;;;;;;;3.58;1.27;;;;;;;;;;5012556;28;20119;-75
2022/07/18 11:41:00;;;;;;;8.48;1.52;;;;;;;;;;5001762;28;20064;-76
2022/07/18 11:43:26;;;;;;;5.53;1.42;;;;;;;;;;5030276;28;20091;-76
2022/07/18 11:46:06;;;;;;;3.70;1.10;;;;;;;;;;5000063;28;20045;-76
2022/07/18 11:48:33;;;;;;;3.40;1.17;;;;;;;;;;5030780;28;20117;-76
2022/07/18 11:50:59;;;;;;;3.40;1.55;;;;;;;;;;5024227;28;20491;-75
2022/07/18 11:53:25;;;;;;;3.30;1.27;;;;;;;;;;5010202;28;20042;-75
2022/07/18 11:55:53;;;;;;;4.78;1.40;;;;;;;;;;5022314;28;20028;-76
2022/07/18 11:58:19;;;;;;;2.83;1.25;;;;;;;;;;4993324;28;20021;-76
2022/07/18 12:00:46;;;;;;;5.43;1.30;;;;;;;;;;5022614;28;20498;-76
2022/07/18 12:03:12;;;;;;;5.45;1.90;;;;;;;;;;5012567;28;20018;-74
2022/07/18 12:05:44;;;;;;;4.18;1.55;;;;;;;;;;5017606;28;20037;-76
2022/07/18 12:08:29;;;;;;;3.33;1.33;;;;;;;;;;5014611;28;20049;-75
2022/07/18 12:11:05;;;;;;;5.45;1.58;;;;;;;;;;5007574;28;20398;-76
2022/07/18 12:13:50;;;;;;;4.68;1.42;;;;;;;;;;5011796;28;20029;-76
2022/07/18 12:16:26;;;;;;;5.18;1.52;;;;;;;;;;5026158;28;20029;-75
2022/07/18 12:18:56;;;;;;;4.65;1.88;;;;;;;;;;5030411;28;20058;-77
2022/07/18 12:21:23;;;;;;;4.07;1.67;;;;;;;;;;5008591;28;20064;-76
2022/07/18 12:23:49;;;;;;;3.65;1.60;;;;;;;;;;5013349;28;20465;-76
2022/07/18 12:26:28;;;;;;;4.95;1.98;;;;;;;;;;5004063;28;20132;-76
2022/07/18 12:29:05;;;;;;;6.10;1.50;;;;;;;;;;4997441;28;20041;-75
2022/07/18 12:31:44;;;;;;;3.95;1.48;;;;;;;;;;5028603;28;20025;-76
2022/07/18 12:34:14;;;;;;;3.90;1.40;;;;;;;;;;5027116;28;20036;-76
2022/07/18 12:36:59;;;;;;;4.75;1.52;;;;;;;;;;5029326;28;20112;-77
2022/07/18 12:39:34;;;;;;;6.43;1.48;;;;;;;;;;5012243;28;20108;-76
2022/07/18 12:42:01;;;;;;;5.30;1.95;;;;;;;;;;5021226;28;20037;-75
2022/07/18 12:44:28;;;;;;;3.60;1.25;;;;;;;;;;5017911;28;20087;-76
2022/07/18 12:46:55;;;;;;;3.85;1.58;;;;;;;;;;5005471;28;20033;-76
2022/07/18 12:49:21;;;;;;;3.60;1.48;;;;;;;;;;5009593;28;20472;-75
2022/07/18 12:51:50;;;;;;;3.40;1.35;;;;;;;;;;5012692;28;20056;-76
2022/07/18 12:54:17;;;;;;;5.45;1.75;;;;;;;;;;5018153;28;20072;-77
2022/07/18 12:56:43;;;;;;;3.08;1.50;;;;;;;;;;4994626;28;20436;-77
2022/07/18 12:59:09;;;;;;;6.30;1.60;;;;;;;;;;5026427;28;20026;-76
2022/07/18 13:01:35;;;;;;;4.32;1.73;;;;;;;;;;5023174;28;20022;-77
2022/07/18 13:04:03;;;;;;;5.05;2.47;;;;;;;;;;5020613;28;20088;-76
2022/07/18 13:06:29;;;;;;;6.45;2.25;;;;;;;;;;5020351;28;20088;-76
2022/07/18 13:08:55;;;;;;;6.78;2.00;;;;;;;;;;5001904;28;20025;-76
2022/07/18 13:11:21;;;;;;;5.05;1.30;;;;;;;;;;5022674;28;20033;-77
2022/07/18 13:13:47;;;;;;;15.10;1.77;;;;;;;;;;5021067;28;20503;-76
2022/07/18 13:16:13;;;;;;;4.05;1.70;;;;;;;;;;4999177;28;20480;-76
2022/07/18 13:18:39;;;;;;;3.25;1.52;;;;;;;;;;5023230;28;20035;-77
2022/07/18 13:21:06;;;;;;;2.83;1.40;;;;;;;;;;5028156;28;20479;-77
2022/07/18 13:23:32;;;;;;;3.42;1.23;;;;;;;;;;5006302;28;20444;-76